Time;durP1;ratioP1;P1;durP2;ratioP2;P2;SDS_P1;SDS_P2;PMS_P1;PMS_P2;Temp;Humidity;BMP_temperature;BMP_pressure;BME280_temperature;BME280_humidity;BME280_pressure;Samples;Min_cycle;Max_cycle;Signal;HPM_P1;HPM_P2
2023/07/08 00:01:19;;;;;;;0.30;0.30;;;;;;;21.26;52.62;100428.50;4416170;32;34047;-83
2023/07/08 00:03:47;;;;;;;0.25;0.25;;;;;;;21.16;52.90;100423.00;4402087;32;33064;-83
2023/07/08 00:06:20;;;;;;;4.97;0.90;;;;;;;21.16;52.90;100423.84;4417759;32;33105;-83
2023/07/08 00:08:48;;;;;;;10.32;0.75;;;;;;;21.12;52.85;100429.59;4404164;32;34408;-83
2023/07/08 00:11:18;;;;;;;0.40;0.40;;;;;;;21.11;52.82;100423.34;4403585;32;33691;-83
2023/07/08 00:13:46;;;;;;;0.60;0.57;;;;;;;20.96;53.29;100432.59;4403726;32;35212;-83
2023/07/08 00:16:16;;;;;;;0.30;0.30;;;;;;;20.83;54.06;100431.84;4414096;32;33295;-83
2023/07/08 00:18:44;;;;;;;0.10;0.10;;;;;;;20.91;53.87;100432.09;4402556;32;33693;-83
2023/07/08 00:21:17;;;;;;;1.15;0.80;;;;;;;20.96;53.71;100430.78;4414725;32;33558;-83
2023/07/08 00:23:49;;;;;;;2.55;0.93;;;;;;;20.95;53.85;100422.84;4405250;32;33230;-83
2023/07/08 00:26:27;;;;;;;0.30;0.30;;;;;;;21.02;53.61;100426.75;4403276;32;32014;-83
2023/07/08 00:28:57;;;;;;;0.20;0.20;;;;;;;20.94;54.00;100431.88;4414857;32;33223;-83
2023/07/08 00:31:25;;;;;;;0.52;0.52;;;;;;;20.77;54.43;100427.78;4425880;32;34826;-83
2023/07/08 00:33:57;;;;;;;0.47;0.43;;;;;;;20.77;54.52;100426.94;4402530;32;32785;-83
2023/07/08 00:36:26;;;;;;;0.60;0.43;;;;;;;20.76;54.70;100430.59;4419193;32;31925;-83
2023/07/08 00:38:54;;;;;;;2.67;0.57;;;;;;;20.54;55.07;100429.53;4414341;32;33180;-83
2023/07/08 00:41:35;;;;;;;0.30;0.20;;;;;;;20.50;55.59;100425.34;4413897;32;33270;-83
2023/07/08 00:44:03;;;;;;;1.95;1.35;;;;;;;20.39;55.90;100426.13;4413870;32;33523;-83
2023/07/08 00:46:37;;;;;;;0.30;0.30;;;;;;;20.37;55.99;100420.03;4414518;32;33442;-83
2023/07/08 00:49:08;;;;;;;0.13;0.13;;;;;;;20.42;55.81;100428.59;4408248;32;33287;-83
2023/07/08 00:51:41;;;;;;;0.95;0.88;;;;;;;20.35;56.07;100427.34;4424012;32;32481;-83
2023/07/08 00:54:14;;;;;;;1.08;0.22;;;;;;;20.41;55.70;100416.16;4402414;32;34043;-83
2023/07/08 00:56:46;;;;;;;0.20;0.20;;;;;;;20.44;55.44;100425.78;4411130;32;32130;-83
2023/07/08 00:59:25;;;;;;;2.70;1.40;;;;;;;20.21;56.28;100428.34;4392571;32;32138;-83
2023/07/08 01:01:53;;;;;;;1.73;0.50;;;;;;;20.17;56.53;100426.00;4427405;32;34179;-83
2023/07/08 01:04:30;;;;;;;1.98;0.30;;;;;;;20.21;56.42;100428.34;4403036;32;33599;-83
2023/07/08 01:06:59;;;;;;;1.20;1.10;;;;;;;20.16;56.60;100425.16;4418530;32;32411;-83
2023/07/08 01:09:31;;;;;;;0.82;0.80;;;;;;;20.15;56.35;100428.81;4403999;32;33874;-83
2023/07/08 01:12:02;;;;;;;0.37;0.37;;;;;;;20.00;56.54;100424.59;4416743;32;32915;-83
2023/07/08 01:14:32;;;;;;;0.20;0.20;;;;;;;20.01;56.51;100431.66;4404589;32;35458;-83
2023/07/08 01:17:00;;;;;;;0.43;0.30;;;;;;;19.96;56.66;100431.13;4414800;32;33011;-83
2023/07/08 01:19:34;;;;;;;0.22;0.20;;;;;;;19.99;56.51;100430.91;4417575;32;34543;-83
2023/07/08 01:22:04;;;;;;;0.13;0.13;;;;;;;20.03;56.55;100429.69;4409998;32;32866;-83
2023/07/08 01:24:36;;;;;;;0.77;0.50;;;;;;;20.14;56.21;100429.78;4418327;32;32996;-83
2023/07/08 01:27:08;;;;;;;0.30;0.30;;;;;;;20.11;56.29;100426.47;4429952;32;33434;-83
2023/07/08 01:29:35;;;;;;;0.20;0.20;;;;;;;20.04;56.49;100426.06;4405697;32;33030;-83
2023/07/08 01:32:03;;;;;;;0.43;0.43;;;;;;;20.09;56.22;100423.91;4417331;32;34823;-83
2023/07/08 01:34:33;;;;;;;0.40;0.40;;;;;;;20.04;56.45;100430.59;4431503;32;33741;-83
2023/07/08 01:37:04;;;;;;;0.82;0.50;;;;;;;19.96;56.75;100420.41;4404440;32;32571;-83
2023/07/08 01:39:33;;;;;;;2.05;0.65;;;;;;;19.88;57.15;100426.31;4417572;32;33859;-83
2023/07/08 01:42:00;;;;;;;0.50;0.50;;;;;;;19.88;57.20;100430.81;4401369;32;32693;-83
2023/07/08 01:44:33;;;;;;;0.50;0.50;;;;;;;19.87;57.05;100426.44;4415476;32;33887;-83
2023/07/08 01:47:06;;;;;;;0.30;0.30;;;;;;;19.89;57.14;100425.38;4416242;32;33311;-83
2023/07/08 01:49:36;;;;;;;0.40;0.40;;;;;;;19.90;56.96;100420.88;4428657;32;34256;-83
2023/07/08 01:52:04;;;;;;;0.65;0.65;;;;;;;19.89;56.90;100429.84;4401732;32;33984;-83
2023/07/08 01:54:31;;;;;;;0.77;0.77;;;;;;;19.83;57.05;100422.25;4431045;32;34472;-83
2023/07/08 01:57:00;;;;;;;0.25;0.10;;;;;;;19.92;56.54;100411.72;4416430;32;34055;-83
2023/07/08 01:59:28;;;;;;;0.37;0.22;;;;;;;19.80;56.81;100422.50;4416793;32;33954;-83
2023/07/08 02:01:56;;;;;;;0.68;0.65;;;;;;;19.75;56.90;100417.47;4414775;32;33723;-83
2023/07/08 02:04:25;;;;;;;0.62;0.62;;;;;;;19.66;57.09;100408.28;4427654;32;34306;-83
2023/07/08 02:06:58;;;;;;;0.20;0.20;;;;;;;19.63;57.09;100416.50;4416482;32;33474;-83
2023/07/08 02:09:28;;;;;;;0.52;0.52;;;;;;;19.62;57.26;100414.81;4403463;32;33560;-83
2023/07/08 02:11:56;;;;;;;0.73;0.60;;;;;;;19.69;56.96;100413.37;4415771;32;34730;-83
2023/07/08 02:14:23;;;;;;;0.25;0.25;;;;;;;19.59;57.13;100409.63;4408602;32;32541;-83
2023/07/08 02:16:51;;;;;;;0.22;0.22;;;;;;;19.59;57.30;100424.84;4430879;32;34158;-83
2023/07/08 02:19:19;;;;;;;2.28;1.33;;;;;;;19.52;57.23;100418.22;4403010;32;32767;-83
2023/07/08 02:21:47;;;;;;;1.00;0.65;;;;;;;19.48;57.32;100422.09;4403344;32;32209;-83
2023/07/08 02:24:16;;;;;;;0.32;0.32;;;;;;;19.57;56.93;100416.94;4417318;32;33713;-83
2023/07/08 02:26:47;;;;;;;3.60;1.50;;;;;;;19.46;57.39;100427.53;4430312;32;33174;-83
2023/07/08 02:29:15;;;;;;;0.22;0.22;;;;;;;19.41;57.44;100429.69;4427465;32;33526;-83
2023/07/08 02:31:42;;;;;;;0.30;0.30;;;;;;;19.45;57.32;100424.00;4397397;32;33502;-83
2023/07/08 02:34:10;;;;;;;0.05;0.05;;;;;;;19.28;57.64;100420.81;4415278;32;32333;-83
2023/07/08 02:36:38;;;;;;;0.22;0.17;;;;;;;19.30;57.77;100421.56;4415847;32;33350;-83
2023/07/08 02:39:06;;;;;;;0.20;0.20;;;;;;;19.47;56.92;100420.37;4414790;32;32302;-83
2023/07/08 02:41:34;;;;;;;0.13;0.13;;;;;;;19.38;57.08;100413.84;4417247;32;33914;-83
2023/07/08 02:44:01;;;;;;;0.20;0.20;;;;;;;19.39;57.15;100426.25;4431470;32;34038;-83
2023/07/08 02:46:29;;;;;;;1.70;0.60;;;;;;;19.45;56.97;100425.81;4409255;32;32002;-83
2023/07/08 02:48:57;;;;;;;0.00;0.00;;;;;;;19.44;56.75;100427.66;4414601;32;34572;-83
2023/07/08 02:51:24;;;;;;;0.10;0.10;;;;;;;19.32;57.16;100422.28;4427562;32;33893;-83
2023/07/08 02:53:52;;;;;;;0.52;0.52;;;;;;;19.37;56.90;100429.06;4415721;32;34579;-83
2023/07/08 02:56:20;;;;;;;0.85;0.25;;;;;;;19.34;57.18;100428.41;4414332;32;33407;-83
2023/07/08 02:58:49;;;;;;;0.40;0.40;;;;;;;19.35;57.20;100438.16;4422525;32;33665;-83
2023/07/08 03:01:17;;;;;;;0.95;0.20;;;;;;;19.36;57.14;100435.34;4415980;32;33202;-83
2023/07/08 03:03:46;;;;;;;0.32;0.32;;;;;;;19.28;57.40;100431.53;4421779;32;32749;-83
2023/07/08 03:06:13;;;;;;;0.25;0.25;;;;;;;19.30;57.32;100429.59;4415700;32;33042;-83
2023/07/08 03:08:41;;;;;;;2.00;1.55;;;;;;;19.41;57.01;100432.34;4403010;32;32116;-83
2023/07/08 03:11:09;;;;;;;0.73;0.70;;;;;;;19.53;56.54;100441.38;4417844;32;33016;-83
2023/07/08 03:13:37;;;;;;;0.32;0.32;;;;;;;19.20;57.47;100440.09;4418401;32;33426;-83
2023/07/08 03:16:12;;;;;;;1.02;1.00;;;;;;;19.06;58.15;100441.03;4418869;32;33037;-83
2023/07/08 03:18:45;;;;;;;0.20;0.20;;;;;;;19.06;58.52;100443.72;4402850;32;33035;-83
2023/07/08 03:21:15;;;;;;;0.30;0.30;;;;;;;19.09;58.41;100442.66;4415885;32;34904;-83
2023/07/08 03:23:43;;;;;;;0.03;0.03;;;;;;;18.97;58.85;100441.66;4414925;32;32163;-83
2023/07/08 03:26:22;;;;;;;1.67;0.77;;;;;;;19.01;58.81;100445.00;4419683;32;32999;-83
2023/07/08 03:28:51;;;;;;;0.47;0.47;;;;;;;19.09;58.79;100448.88;4416952;32;33526;-83
2023/07/08 03:31:19;;;;;;;0.00;0.00;;;;;;;19.04;59.08;100451.00;4428663;32;33991;-83
2023/07/08 03:33:47;;;;;;;0.47;0.47;;;;;;;19.18;58.63;100437.53;4416340;32;33692;-83
2023/07/08 03:36:23;;;;;;;0.80;0.80;;;;;;;19.05;59.42;100446.50;4417136;32;33316;-83
2023/07/08 03:38:52;;;;;;;0.17;0.17;;;;;;;19.03;59.28;100453.75;4416233;32;33700;-83
2023/07/08 03:41:20;;;;;;;0.30;0.30;;;;;;;19.00;59.35;100451.31;4418758;32;34030;-83
2023/07/08 03:43:50;;;;;;;1.45;0.68;;;;;;;19.02;59.62;100449.38;4418436;32;33924;-83
2023/07/08 03:46:20;;;;;;;1.27;1.12;;;;;;;19.10;59.53;100461.28;4392175;32;31836;-83
2023/07/08 03:48:50;;;;;;;1.85;0.20;;;;;;;19.22;59.32;100458.69;4417422;32;34612;-83
2023/07/08 03:51:38;;;;;;;1.02;0.77;;;;;;;19.39;59.01;100450.37;4415522;32;34819;-83
2023/07/08 03:54:09;;;;;;;0.20;0.20;;;;;;;19.53;58.80;100452.94;4412793;32;33559;-83
2023/07/08 03:56:37;;;;;;;1.00;0.80;;;;;;;19.69;58.45;100456.25;4415634;32;32883;-83
2023/07/08 03:59:05;;;;;;;0.57;0.57;;;;;;;19.74;58.57;100450.56;4429534;32;34056;-83
2023/07/08 04:01:32;;;;;;;0.35;0.35;;;;;;;19.79;58.59;100458.28;4419620;32;33334;-83
2023/07/08 04:04:02;;;;;;;0.62;0.52;;;;;;;19.91;58.45;100449.38;4414395;32;33578;-83
2023/07/08 04:06:30;;;;;;;0.00;0.00;;;;;;;20.12;58.04;100449.63;4413910;32;32168;-83
2023/07/08 04:08:57;;;;;;;0.22;0.22;;;;;;;20.48;56.83;100450.59;4415414;32;34093;-83
2023/07/08 04:11:26;;;;;;;0.57;0.25;;;;;;;20.64;55.97;100454.69;4402968;32;32609;-83
2023/07/08 04:13:53;;;;;;;0.50;0.50;;;;;;;20.92;53.40;100452.59;4415434;32;33135;-83
2023/07/08 04:16:45;;;;;;;0.40;0.30;;;;;;;21.08;53.83;100445.09;4429168;32;34170;-83
2023/07/08 04:19:14;;;;;;;1.55;0.30;;;;;;;21.02;54.74;100453.59;4414975;32;32037;-83
2023/07/08 04:21:43;;;;;;;2.15;0.15;;;;;;;21.25;52.97;100445.59;4417266;32;33438;-83
2023/07/08 04:24:12;;;;;;;0.35;0.32;;;;;;;21.52;52.41;100454.22;4415798;32;33321;-83
2023/07/08 04:26:41;;;;;;;0.80;0.80;;;;;;;21.39;53.23;100450.78;4405955;32;32291;-83
2023/07/08 04:29:11;;;;;;;0.68;0.68;;;;;;;21.70;51.42;100450.09;4422220;32;32708;-84
2023/07/08 04:31:38;;;;;;;0.22;0.22;;;;;;;21.77;51.54;100452.28;4429784;32;33728;-83
2023/07/08 04:34:08;;;;;;;1.50;0.20;;;;;;;21.85;50.85;100444.44;4414472;32;32186;-83
2023/07/08 04:36:36;;;;;;;1.05;0.68;;;;;;;21.84;49.62;100453.47;4429149;32;33444;-83
2023/07/08 04:39:05;;;;;;;0.82;0.82;;;;;;;22.04;49.49;100450.06;4403469;32;34718;-83
2023/07/08 04:41:33;;;;;;;0.90;0.68;;;;;;;22.16;48.60;100449.06;4417588;32;32336;-83
2023/07/08 04:44:02;;;;;;;0.52;0.45;;;;;;;22.22;48.32;100453.97;4415057;32;32877;-83
2023/07/08 04:46:34;;;;;;;0.17;0.17;;;;;;;22.39;48.25;100454.41;4430042;32;33745;-83
2023/07/08 04:49:04;;;;;;;0.65;0.62;;;;;;;22.56;47.50;100456.56;4416350;32;33585;-83
2023/07/08 04:51:32;;;;;;;0.30;0.30;;;;;;;22.77;46.55;100453.03;4403551;32;32755;-83
2023/07/08 04:54:00;;;;;;;1.62;0.68;;;;;;;22.89;47.88;100462.81;4418714;32;33451;-83
2023/07/08 04:56:43;;;;;;;0.40;0.40;;;;;;;23.19;46.70;100459.34;4412782;32;33374;-83
2023/07/08 04:59:13;;;;;;;6.82;0.80;;;;;;;23.08;46.93;100457.56;4422350;32;33331;-83
2023/07/08 05:01:40;;;;;;;1.45;0.35;;;;;;;23.08;48.14;100457.56;4404330;32;32264;-83
2023/07/08 05:04:11;;;;;;;0.40;0.40;;;;;;;23.09;48.74;100456.56;4404965;32;32481;-83
2023/07/08 05:06:39;;;;;;;1.33;0.70;;;;;;;23.20;48.37;100455.66;4407627;32;33591;-83
2023/07/08 05:09:07;;;;;;;0.50;0.40;;;;;;;23.25;48.01;100459.66;4417866;32;32130;-83
2023/07/08 05:11:35;;;;;;;0.20;0.20;;;;;;;23.24;48.06;100460.63;4432755;32;34129;-83
2023/07/08 05:14:04;;;;;;;0.08;0.08;;;;;;;23.36;47.82;100460.56;4417398;32;33528;-83
2023/07/08 05:16:34;;;;;;;0.43;0.43;;;;;;;23.40;48.14;100454.75;4430913;32;33494;-83
2023/07/08 05:19:02;;;;;;;2.08;0.60;;;;;;;23.72;46.63;100461.91;4416219;32;33941;-84
2023/07/08 05:21:33;;;;;;;0.37;0.37;;;;;;;23.73;46.66;100467.16;4392529;32;33972;-83
2023/07/08 05:24:02;;;;;;;0.70;0.57;;;;;;;23.92;45.72;100466.38;4413808;32;33948;-83
2023/07/08 05:26:31;;;;;;;0.50;0.50;;;;;;;23.88;46.96;100466.78;4402958;32;32885;-83
2023/07/08 05:28:58;;;;;;;0.62;0.20;;;;;;;23.80;47.44;100470.19;4417236;32;33295;-83
2023/07/08 05:31:26;;;;;;;0.50;0.50;;;;;;;23.97;45.68;100466.81;4415917;32;32942;-83
2023/07/08 05:34:13;;;;;;;0.43;0.43;;;;;;;23.80;46.70;100472.03;4417414;32;32040;-83
2023/07/08 05:36:41;;;;;;;0.73;0.73;;;;;;;23.76;46.69;100475.00;4417188;32;32258;-83
2023/07/08 05:39:09;;;;;;;3.70;0.85;;;;;;;23.75;46.64;100483.22;4405760;32;32844;-83
2023/07/08 05:41:36;;;;;;;0.62;0.60;;;;;;;23.75;46.75;100481.37;4429563;32;33314;-83
2023/07/08 05:44:04;;;;;;;0.82;0.55;;;;;;;23.53;48.72;100489.59;4430407;32;33923;-83
2023/07/08 05:46:32;;;;;;;1.00;0.90;;;;;;;23.49;48.92;100482.75;4416458;32;32632;-83
2023/07/08 05:48:59;;;;;;;1.48;1.08;;;;;;;23.55;48.22;100493.03;4416528;32;32553;-83
2023/07/08 05:51:28;;;;;;;1.10;1.10;;;;;;;23.65;47.58;100493.12;4431228;32;33912;-83
2023/07/08 05:53:56;;;;;;;0.75;0.75;;;;;;;23.89;47.15;100480.16;4406227;32;33246;-83
2023/07/08 05:56:23;;;;;;;0.22;0.22;;;;;;;23.91;46.52;100482.72;4415401;32;33032;-83
2023/07/08 05:58:51;;;;;;;0.35;0.35;;;;;;;24.07;46.30;100491.16;4429964;32;34699;-83
2023/07/08 06:01:19;;;;;;;1.37;0.37;;;;;;;24.23;45.85;100488.78;4416593;32;32734;-83
2023/07/08 06:03:47;;;;;;;0.65;0.65;;;;;;;24.57;45.77;100488.44;4417789;32;33042;-83
2023/07/08 06:06:14;;;;;;;0.22;0.22;;;;;;;24.52;44.54;100486.19;4416664;32;31286;-83
2023/07/08 06:08:42;;;;;;;2.50;1.15;;;;;;;25.21;43.51;100482.53;4416484;32;34597;-83
2023/07/08 06:11:10;;;;;;;1.85;1.02;;;;;;;25.24;44.13;100490.31;4402432;32;34041;-83
2023/07/08 06:13:38;;;;;;;2.47;0.88;;;;;;;25.07;43.65;100487.44;4414744;32;32989;-83
2023/07/08 06:16:05;;;;;;;0.62;0.50;;;;;;;25.65;42.22;100480.13;4413089;32;33546;-83
2023/07/08 06:18:33;;;;;;;0.77;0.77;;;;;;;25.90;40.74;100485.91;4405720;32;33350;-83
2023/07/08 06:21:01;;;;;;;2.20;1.05;;;;;;;25.89;40.87;100489.59;4416072;32;34768;-83
2023/07/08 06:23:30;;;;;;;0.70;0.60;;;;;;;25.91;40.11;100487.59;4403032;32;32537;-83
2023/07/08 06:25:57;;;;;;;0.30;0.30;;;;;;;25.96;41.39;100486.12;4418385;32;32030;-83
2023/07/08 06:28:25;;;;;;;0.10;0.10;;;;;;;26.00;41.05;100486.69;4401519;32;32543;-83
2023/07/08 06:30:52;;;;;;;0.82;0.80;;;;;;;26.06;42.15;100486.09;4405532;32;32824;-84
2023/07/08 06:33:20;;;;;;;0.55;0.40;;;;;;;26.49;39.27;100488.16;4416298;32;32168;-83
2023/07/08 06:35:48;;;;;;;0.93;0.80;;;;;;;26.39;41.42;100486.47;4414872;32;31919;-83
2023/07/08 06:38:15;;;;;;;1.33;0.77;;;;;;;26.17;41.79;100480.50;4429095;32;34105;-84
2023/07/08 06:40:43;;;;;;;1.12;0.88;;;;;;;26.60;41.03;100486.25;4416197;32;32127;-83
2023/07/08 06:43:10;;;;;;;0.85;0.82;;;;;;;26.74;40.15;100486.56;4432059;32;33955;-83
2023/07/08 06:45:38;;;;;;;0.55;0.55;;;;;;;26.79;40.18;100488.81;4415914;32;34107;-83
2023/07/08 06:48:06;;;;;;;0.70;0.47;;;;;;;26.84;38.33;100485.63;4428671;32;33991;-83
2023/07/08 06:50:34;;;;;;;0.20;0.20;;;;;;;26.93;39.43;100473.84;4430101;32;34675;-84
2023/07/08 06:53:01;;;;;;;0.20;0.20;;;;;;;26.63;39.18;100475.06;4414576;32;33028;-84
2023/07/08 06:55:30;;;;;;;1.58;0.62;;;;;;;26.78;39.06;100479.81;4396436;32;32025;-84
2023/07/08 06:57:57;;;;;;;0.90;0.82;;;;;;;26.48;37.62;100480.19;4408866;32;33809;-84
2023/07/08 07:00:24;;;;;;;1.00;0.88;;;;;;;27.06;37.13;100475.16;4401628;32;32736;-84
2023/07/08 07:02:52;;;;;;;0.73;0.60;;;;;;;27.27;36.56;100472.13;4410623;32;33598;-84
2023/07/08 07:05:20;;;;;;;0.30;0.20;;;;;;;27.74;35.52;100462.78;4397131;32;32652;-84
2023/07/08 07:07:50;;;;;;;0.70;0.70;;;;;;;27.79;34.96;100461.28;4410690;32;33114;-84
2023/07/08 07:10:18;;;;;;;1.27;0.73;;;;;;;28.20;34.38;100463.28;4411558;32;34794;-84
2023/07/08 07:12:45;;;;;;;0.85;0.68;;;;;;;28.30;33.35;100464.88;4403537;32;33710;-84
2023/07/08 07:15:13;;;;;;;8.60;0.65;;;;;;;28.14;34.50;100464.81;4404451;32;33361;-84
2023/07/08 07:17:43;;;;;;;1.65;1.15;;;;;;;27.87;32.78;100460.47;4405683;32;33961;-84
2023/07/08 07:20:11;;;;;;;2.40;0.75;;;;;;;28.02;33.55;100460.69;4401068;32;34021;-84
2023/07/08 07:22:38;;;;;;;1.40;0.75;;;;;;;28.24;33.04;100451.94;4401259;32;34265;-84
2023/07/08 07:25:06;;;;;;;1.33;0.77;;;;;;;28.14;33.57;100456.66;4406916;32;32600;-84
2023/07/08 07:27:34;;;;;;;0.30;0.30;;;;;;;27.85;32.95;100462.47;4415062;32;34676;-84
2023/07/08 07:30:02;;;;;;;0.25;0.25;;;;;;;28.51;29.99;100461.72;4409181;32;33224;-84
2023/07/08 07:32:32;;;;;;;0.40;0.37;;;;;;;28.57;29.35;100461.03;4409808;32;32130;-84
2023/07/08 07:35:00;;;;;;;0.10;0.10;;;;;;;28.78;29.60;100457.00;4408896;32;33296;-84
2023/07/08 07:37:28;;;;;;;1.65;0.70;;;;;;;29.08;28.91;100458.22;4410423;32;33886;-84
2023/07/08 07:39:55;;;;;;;0.85;0.85;;;;;;;29.13;29.42;100458.53;4397235;32;32814;-84
2023/07/08 07:42:23;;;;;;;1.23;0.93;;;;;;;29.19;28.72;100457.84;4409676;32;32513;-84
2023/07/08 07:44:51;;;;;;;1.40;0.90;;;;;;;28.91;29.49;100451.03;4422797;32;33009;-84
2023/07/08 07:47:18;;;;;;;0.40;0.40;;;;;;;29.09;31.33;100459.91;4421382;32;34467;-84
2023/07/08 07:49:46;;;;;;;2.17;0.93;;;;;;;29.02;29.40;100458.91;4397128;32;32565;-84
2023/07/08 07:52:14;;;;;;;1.15;0.70;;;;;;;28.80;29.76;100458.50;4404683;32;33593;-84
2023/07/08 07:54:44;;;;;;;3.42;1.42;;;;;;;29.12;29.50;100450.56;4427113;32;33710;-84
2023/07/08 07:57:11;;;;;;;1.58;0.93;;;;;;;29.09;29.59;100449.03;4409329;32;33820;-84
2023/07/08 07:59:38;;;;;;;0.55;0.52;;;;;;;29.47;30.31;100441.16;4408471;32;34336;-84
2023/07/08 08:02:08;;;;;;;0.30;0.30;;;;;;;29.50;29.67;100448.97;4409319;32;34310;-84
2023/07/08 08:04:36;;;;;;;0.88;0.35;;;;;;;29.89;29.26;100448.19;4421234;32;31858;-84
2023/07/08 08:07:04;;;;;;;0.60;0.60;;;;;;;29.85;27.92;100429.47;4402621;32;32733;-85
2023/07/08 08:09:31;;;;;;;0.35;0.35;;;;;;;29.87;27.90;100432.03;4409112;32;33110;-84
2023/07/08 08:12:01;;;;;;;0.75;0.60;;;;;;;29.61;28.68;100435.00;4421409;32;34281;-84
2023/07/08 08:14:29;;;;;;;0.55;0.55;;;;;;;29.24;29.33;100436.41;4409462;32;34178;-84
2023/07/08 08:16:57;;;;;;;1.02;0.40;;;;;;;29.65;28.08;100428.19;4422706;32;34783;-84
2023/07/08 08:19:24;;;;;;;0.25;0.15;;;;;;;29.38;29.23;100436.75;4410098;32;33913;-84
2023/07/08 08:21:52;;;;;;;0.90;0.55;;;;;;;29.75;29.33;100434.28;4408190;32;33702;-84
2023/07/08 08:24:19;;;;;;;0.62;0.62;;;;;;;29.91;27.08;100422.50;4408252;32;34053;-84
2023/07/08 08:26:47;;;;;;;0.37;0.37;;;;;;;29.73;28.06;100430.06;4422500;32;34356;-84
2023/07/08 08:29:15;;;;;;;0.47;0.47;;;;;;;30.12;28.91;100424.59;4409234;32;34054;-84
2023/07/08 08:31:42;;;;;;;0.25;0.25;;;;;;;30.37;28.49;100427.19;4407540;32;32464;-84
2023/07/08 08:34:10;;;;;;;0.45;0.45;;;;;;;30.61;28.16;100427.03;4408934;32;34036;-84
2023/07/08 08:36:37;;;;;;;0.22;0.22;;;;;;;30.57;26.63;100421.06;4400564;32;32032;-84
2023/07/08 08:39:05;;;;;;;0.80;0.50;;;;;;;30.43;27.34;100429.19;4408178;32;33452;-84
2023/07/08 08:41:35;;;;;;;0.45;0.35;;;;;;;30.66;28.65;100421.88;4410766;32;32432;-84
2023/07/08 08:44:04;;;;;;;0.62;0.52;;;;;;;30.59;27.20;100440.00;4404038;32;31923;-84
2023/07/08 08:46:41;;;;;;;1.33;0.90;;;;;;;30.61;27.85;100430.59;4397139;32;35010;-84
2023/07/08 08:49:27;;;;;;;1.87;1.17;;;;;;;30.73;27.29;100416.59;4402661;32;34851;-84
2023/07/08 08:51:59;;;;;;;0.62;0.62;;;;;;;31.37;27.76;100408.81;4415890;32;32417;-84
2023/07/08 08:54:29;;;;;;;0.43;0.43;;;;;;;31.18;26.64;100415.63;4400743;32;34205;-84
2023/07/08 08:57:07;;;;;;;1.77;1.20;;;;;;;31.16;26.07;100405.97;4404192;32;32690;-84
2023/07/08 08:59:38;;;;;;;0.88;0.82;;;;;;;31.15;26.67;100407.00;4412948;32;32277;-84
2023/07/08 09:02:43;;;;;;;0.83;0.67;;;;;;;31.31;26.55;100409.59;4415479;32;33397;-84
2023/07/08 09:05:11;;;;;;;2.90;0.60;;;;;;;30.78;25.04;100405.97;4429950;32;33460;-84
2023/07/08 09:08:13;;;;;;;0.50;0.50;;;;;;;30.67;26.04;100401.78;4417951;32;33865;-84
2023/07/08 09:11:01;;;;;;;12.75;1.00;;;;;;;31.05;26.35;100399.94;4429978;32;34648;-84
2023/07/08 09:13:34;;;;;;;1.17;0.73;;;;;;;31.28;26.17;100399.87;4415931;32;34464;-84
2023/07/08 09:16:40;;;;;;;0.50;0.50;;;;;;;31.39;26.46;100400.47;4419929;32;33153;-84
2023/07/08 09:19:26;;;;;;;2.03;1.17;;;;;;;31.11;25.68;100395.63;4435039;32;33612;-84
2023/07/08 09:21:57;;;;;;;1.00;0.60;;;;;;;31.29;26.31;100408.94;4418501;32;34121;-84
2023/07/08 09:24:33;;;;;;;0.17;0.17;;;;;;;30.95;24.82;100403.94;4431842;32;33787;-84
2023/07/08 09:27:02;;;;;;;0.35;0.35;;;;;;;31.17;26.64;100408.50;4431233;32;33533;-84
2023/07/08 09:29:31;;;;;;;2.45;1.50;;;;;;;31.11;25.50;100409.25;4405290;32;34313;-84
2023/07/08 09:31:59;;;;;;;1.52;0.95;;;;;;;31.47;24.14;100403.09;4416444;32;34178;-84
2023/07/08 09:34:40;;;;;;;0.50;0.50;;;;;;;31.85;23.97;100401.09;4429461;32;33586;-84
2023/07/08 09:37:25;;;;;;;0.22;0.17;;;;;;;31.80;24.72;100401.66;4407621;32;33298;-84
2023/07/08 09:39:54;;;;;;;0.57;0.57;;;;;;;31.81;22.94;100399.75;4431964;32;34664;-84
2023/07/08 09:42:25;;;;;;;0.37;0.22;;;;;;;31.68;22.97;100405.91;4414121;32;33592;-84
2023/07/08 09:45:01;;;;;;;0.55;0.55;;;;;;;31.49;24.52;100395.56;4415849;32;33515;-84
2023/07/08 09:47:33;;;;;;;0.22;0.22;;;;;;;31.60;25.92;100393.19;4415506;32;32388;-84
2023/07/08 09:50:04;;;;;;;0.55;0.55;;;;;;;31.28;25.43;100399.87;4418500;32;34795;-84
2023/07/08 09:52:32;;;;;;;1.02;0.77;;;;;;;31.14;25.63;100400.69;4416744;32;32785;-84
2023/07/08 09:55:00;;;;;;;0.30;0.30;;;;;;;31.37;26.50;100398.75;4424535;32;33634;-84
2023/07/08 09:57:31;;;;;;;0.70;0.68;;;;;;;30.91;25.56;100402.59;4425581;32;33350;-84
2023/07/08 10:00:03;;;;;;;1.33;0.90;;;;;;;31.71;25.51;100394.59;4411470;32;33054;-84
2023/07/08 10:02:37;;;;;;;0.55;0.55;;;;;;;31.70;24.62;100386.59;4403706;32;33373;-84
2023/07/08 10:05:26;;;;;;;3.78;0.57;;;;;;;32.41;24.19;100390.44;4429129;32;34600;-84
2023/07/08 10:07:56;;;;;;;0.75;0.50;;;;;;;32.70;22.86;100383.13;4406878;32;34156;-85
2023/07/08 10:10:33;;;;;;;0.65;0.60;;;;;;;32.78;23.94;100383.84;4410561;32;33891;-85
2023/07/08 10:13:28;;;;;;;0.95;0.30;;;;;;;32.57;22.37;100381.12;4399515;32;33452;-84
2023/07/08 10:16:09;;;;;;;1.67;0.75;;;;;;;32.16;25.13;100386.37;4406292;32;33724;-84
2023/07/08 10:18:37;;;;;;;0.47;0.47;;;;;;;32.33;23.39;100377.72;4403786;32;32849;-84
2023/07/08 10:21:17;;;;;;;0.47;0.47;;;;;;;32.14;22.95;100364.69;4402884;32;33255;-85
2023/07/08 10:23:56;;;;;;;0.70;0.70;;;;;;;32.33;22.76;100366.81;4410728;32;34033;-84
2023/07/08 10:26:29;;;;;;;0.17;0.17;;;;;;;32.35;23.21;100372.91;4420500;32;34269;-84
2023/07/08 10:29:39;;;;;;;0.40;0.40;;;;;;;32.13;24.63;100369.28;4412231;32;32302;-84
2023/07/08 10:32:33;;;;;;;0.40;0.40;;;;;;;32.04;25.23;100358.69;4415106;32;33856;-84
2023/07/08 10:35:08;;;;;;;0.70;0.70;;;;;;;32.75;23.28;100359.63;4425869;32;33913;-84
2023/07/08 10:37:46;;;;;;;2.12;0.88;;;;;;;32.72;23.48;100354.56;4416818;32;34795;-84
2023/07/08 10:40:26;;;;;;;0.95;0.68;;;;;;;33.57;22.12;100355.37;4405260;32;32906;-84
2023/07/08 10:43:00;;;;;;;0.65;0.65;;;;;;;33.24;22.09;100356.03;4428423;32;34287;-84
2023/07/08 10:45:34;;;;;;;0.10;0.10;;;;;;;33.73;21.67;100345.97;4411349;32;34365;-84
2023/07/08 10:48:13;;;;;;;0.43;0.43;;;;;;;33.38;24.51;100348.75;4414648;32;34181;-84
2023/07/08 10:51:01;;;;;;;0.47;0.47;;;;;;;33.44;22.59;100338.91;4431295;32;33721;-85
2023/07/08 10:53:47;;;;;;;2.05;0.70;;;;;;;33.85;21.58;100347.03;4427254;32;34034;-84
2023/07/08 10:56:20;;;;;;;1.17;0.73;;;;;;;33.76;21.72;100343.66;4410168;32;33519;-85
2023/07/08 10:58:50;;;;;;;0.77;0.52;;;;;;;33.97;22.59;100339.13;4397751;32;34846;-84
2023/07/08 11:01:28;;;;;;;3.58;0.70;;;;;;;33.62;22.37;100350.97;4402070;32;32546;-84
2023/07/08 11:04:02;;;;;;;0.20;0.20;;;;;;;33.31;22.57;100337.72;4403116;32;32316;-84
2023/07/08 11:06:48;;;;;;;0.30;0.30;;;;;;;32.78;23.58;100345.56;4410179;32;32949;-84
2023/07/08 11:09:22;;;;;;;0.20;0.20;;;;;;;32.37;23.78;100346.25;4412621;32;34069;-84
2023/07/08 11:11:54;;;;;;;0.60;0.60;;;;;;;31.91;24.95;100345.75;4398727;32;33825;-85
2023/07/08 11:14:26;;;;;;;1.08;0.85;;;;;;;31.97;24.26;100344.12;4401916;32;32448;-84
2023/07/08 11:17:18;;;;;;;0.70;0.52;;;;;;;31.89;23.50;100339.63;4419977;32;34774;-84
2023/07/08 11:20:16;;;;;;;1.05;1.00;;;;;;;31.91;25.44;100334.81;4417260;32;34128;-84
2023/07/08 11:22:52;;;;;;;0.98;0.60;;;;;;;32.50;24.20;100333.75;4413919;32;32922;-84
2023/07/08 11:25:32;;;;;;;1.00;1.00;;;;;;;32.42;24.06;100334.72;4410512;32;33464;-84
2023/07/08 11:28:03;;;;;;;0.43;0.43;;;;;;;32.36;23.94;100340.94;4413847;32;33841;-84
2023/07/08 11:30:34;;;;;;;0.75;0.55;;;;;;;32.23;23.32;100338.91;4408990;32;34636;-84
2023/07/08 11:33:04;;;;;;;0.20;0.20;;;;;;;32.14;23.05;100334.63;4414362;32;34149;-84
2023/07/08 11:35:43;;;;;;;2.42;1.00;;;;;;;31.74;24.82;100330.59;4401272;32;33932;-84
2023/07/08 11:38:15;;;;;;;5.03;1.55;;;;;;;32.76;22.72;100322.19;4421248;32;33735;-85
2023/07/08 11:41:14;;;;;;;0.50;0.50;;;;;;;32.79;23.75;100317.16;4410182;32;33841;-85
2023/07/08 11:43:44;;;;;;;0.50;0.50;;;;;;;32.74;23.48;100318.81;4406134;32;32611;-84